Time;durP1;ratioP1;P1;durP2;ratioP2;P2;SDS_P1;SDS_P2;PMS_P1;PMS_P2;Temp;Humidity;BMP_temperature;BMP_pressure;BME280_temperature;BME280_humidity;BME280_pressure;Samples;Min_cycle;Max_cycle;Signal;HPM_P1;HPM_P2
2023/09/28 00:02:45;;;;;;;5.10;2.30;;;18.40;99.90;;;;;;4974008;28;20249;-77
2023/09/28 00:05:12;;;;;;;2.70;2.20;;;18.40;99.90;;;;;;4973142;28;20186;-77
2023/09/28 00:07:42;;;;;;;2.60;2.40;;;18.40;99.90;;;;;;4972884;28;20185;-77
2023/09/28 00:10:13;;;;;;;3.93;2.33;;;18.40;99.90;;;;;;4974395;28;20174;-77
2023/09/28 00:12:40;;;;;;;3.47;2.47;;;18.40;99.90;;;;;;4974140;28;20201;-77
2023/09/28 00:15:08;;;;;;;6.60;1.97;;;18.40;99.90;;;;;;4974090;28;20200;-77
2023/09/28 00:17:33;;;;;;;6.03;2.40;;;18.40;99.90;;;;;;4974390;28;20181;-78
2023/09/28 00:19:59;;;;;;;4.93;2.37;;;18.30;99.90;;;;;;4975995;28;20261;-79
2023/09/28 00:22:25;;;;;;;4.67;2.63;;;18.30;99.90;;;;;;4975463;28;20194;-79
2023/09/28 00:24:50;;;;;;;3.87;2.33;;;18.30;99.90;;;;;;4976976;28;20182;-79
2023/09/28 00:27:16;;;;;;;4.30;2.37;;;18.30;99.90;;;;;;4974852;28;20574;-76
2023/09/28 00:29:41;;;;;;;4.17;2.33;;;18.30;99.90;;;;;;4973988;28;20746;-76
2023/09/28 00:32:08;;;;;;;3.47;2.40;;;18.30;99.90;;;;;;4972269;28;20220;-77
2023/09/28 00:34:33;;;;;;;4.40;2.60;;;18.20;1.00;;;;;;4972334;28;20257;-77
2023/09/28 00:36:59;;;;;;;3.20;2.40;;;18.20;1.00;;;;;;4973652;28;20206;-77
2023/09/28 00:39:24;;;;;;;3.53;2.63;;;18.20;1.00;;;;;;4972531;28;20182;-77
2023/09/28 00:41:50;;;;;;;3.27;2.43;;;18.20;1.00;;;;;;4975907;28;20201;-79
2023/09/28 00:44:15;;;;;;;3.63;2.40;;;18.20;1.00;;;;;;4977188;28;20670;-79
2023/09/28 00:46:42;;;;;;;5.73;2.73;;;18.10;1.00;;;;;;4977049;28;20174;-79
2023/09/28 00:49:08;;;;;;;4.33;2.60;;;18.10;1.00;;;;;;4976044;28;20174;-78
2023/09/28 00:51:35;;;;;;;2.80;2.57;;;18.10;1.00;;;;;;4975465;28;20206;-77
2023/09/28 00:54:02;;;;;;;5.43;2.60;;;18.10;1.00;;;;;;4973935;28;20253;-77
2023/09/28 00:56:29;;;;;;;3.73;2.30;;;18.10;1.00;;;;;;4973486;28;20174;-77
2023/09/28 00:58:56;;;;;;;2.47;2.27;;;18.10;1.00;;;;;;4973627;28;20174;-77
2023/09/28 01:01:24;;;;;;;5.90;2.77;;;18.10;1.00;;;;;;4973494;28;20174;-76
2023/09/28 01:03:50;;;;;;;3.83;2.40;;;18.20;1.00;;;;;;4972899;28;20182;-76
2023/09/28 01:06:16;;;;;;;4.87;2.53;;;18.10;1.00;;;;;;4972178;28;20245;-75
2023/09/28 01:08:41;;;;;;;3.13;2.33;;;18.20;1.00;;;;;;4973555;28;20182;-77
2023/09/28 01:11:07;;;;;;;3.90;2.50;;;18.10;1.00;;;;;;4971930;28;20206;-77
2023/09/28 01:13:33;;;;;;;3.10;2.30;;;18.10;1.00;;;;;;4974320;28;20665;-77
2023/09/28 01:15:59;;;;;;;5.00;2.43;;;18.10;1.00;;;;;;4976005;28;20178;-77
2023/09/28 01:18:25;;;;;;;4.27;2.40;;;18.10;1.00;;;;;;4975846;28;20642;-77
2023/09/28 01:20:51;;;;;;;2.53;2.30;;;18.10;1.00;;;;;;4977100;28;20178;-77
2023/09/28 01:23:17;;;;;;;4.27;2.47;;;18.10;1.00;;;;;;4976922;28;20221;-77
2023/09/28 01:25:46;;;;;;;5.10;2.60;;;18.10;1.00;;;;;;4976948;28;20647;-77
2023/09/28 01:28:12;;;;;;;2.43;1.97;;;18.10;99.90;;;;;;4975704;28;20262;-77
2023/09/28 01:30:37;;;;;;;5.23;2.40;;;18.00;99.90;;;;;;4975325;28;20214;-76
2023/09/28 01:33:04;;;;;;;3.93;2.60;;;18.10;99.90;;;;;;4976769;28;20194;-77
2023/09/28 01:35:30;;;;;;;2.33;1.87;;;18.10;99.90;;;;;;4976786;28;20194;-77
2023/09/28 01:38:09;;;;;;;3.33;2.30;;;18.10;99.90;;;;;;4976952;28;20244;-77
2023/09/28 01:40:34;;;;;;;2.83;2.30;;;18.10;99.90;;;;;;4976905;28;20158;-77
2023/09/28 01:43:00;;;;;;;3.23;2.77;;;17.90;99.90;;;;;;4975501;28;20636;-77
2023/09/28 01:45:26;;;;;;;3.43;2.40;;;18.10;99.90;;;;;;4975373;28;20282;-76
2023/09/28 01:47:51;;;;;;;3.13;2.40;;;18.00;1.00;;;;;;4975394;28;20205;-77
2023/09/28 01:50:17;;;;;;;3.20;2.47;;;18.00;1.00;;;;;;4976767;28;20213;-77
2023/09/28 01:52:42;;;;;;;3.10;2.30;;;18.00;1.00;;;;;;4975415;28;20249;-77
2023/09/28 01:55:08;;;;;;;5.93;2.60;;;18.00;1.00;;;;;;4976832;28;20248;-77
2023/09/28 01:57:34;;;;;;;2.60;2.30;;;17.90;1.00;;;;;;4975858;28;20190;-77
2023/09/28 02:00:00;;;;;;;3.23;2.60;;;18.00;1.00;;;;;;4975643;28;20674;-77
2023/09/28 02:02:26;;;;;;;4.10;2.23;;;17.90;1.00;;;;;;4975540;28;20202;-77
2023/09/28 02:04:51;;;;;;;5.90;2.43;;;17.90;1.00;;;;;;4976575;28;20261;-76
2023/09/28 02:07:18;;;;;;;3.97;2.60;;;17.90;1.00;;;;;;4976727;28;20218;-77
2023/09/28 02:09:43;;;;;;;4.83;2.60;;;17.80;1.00;;;;;;4976460;28;20261;-77
2023/09/28 02:12:09;;;;;;;4.93;2.47;;;17.80;1.00;;;;;;4976682;28;20610;-77
2023/09/28 02:14:36;;;;;;;3.47;2.43;;;18.00;1.00;;;;;;4976492;28;20185;-77
2023/09/28 02:17:01;;;;;;;5.13;2.47;;;17.90;1.00;;;;;;4976833;28;20190;-77
2023/09/28 02:19:27;;;;;;;3.90;2.60;;;17.80;1.00;;;;;;4976311;28;20178;-77
2023/09/28 02:21:52;;;;;;;4.77;2.90;;;17.90;1.00;;;;;;4976075;28;20620;-77
2023/09/28 02:24:18;;;;;;;5.17;2.70;;;17.80;1.00;;;;;;4974638;28;20193;-77
2023/09/28 02:26:47;;;;;;;4.30;2.83;;;17.80;29.90;;;;;;4975547;28;20603;-76
2023/09/28 02:29:12;;;;;;;2.40;2.20;;;17.70;6.30;;;;;;4974717;28;20186;-77
2023/09/28 02:31:42;;;;;;;2.33;2.13;;;17.70;1.00;;;;;;4976363;28;20309;-77
2023/09/28 02:34:08;;;;;;;3.17;2.60;;;17.70;1.00;;;;;;4974808;28;20178;-77
2023/09/28 02:36:35;;;;;;;3.77;2.43;;;17.70;1.00;;;;;;4974949;28;20262;-77
2023/09/28 02:39:01;;;;;;;6.90;2.30;;;17.60;99.90;;;;;;4974457;28;20301;-77
2023/09/28 02:41:30;;;;;;;3.53;2.30;;;17.70;99.90;;;;;;4974631;28;20213;-77
2023/09/28 02:43:55;;;;;;;2.73;2.23;;;17.50;99.90;;;;;;4976254;28;20673;-77
2023/09/28 02:46:21;;;;;;;3.50;2.53;;;17.60;99.90;;;;;;4976180;28;20585;-77
2023/09/28 02:48:46;;;;;;;4.47;2.47;;;17.40;99.90;;;;;;4975832;28;20178;-76
2023/09/28 02:51:12;;;;;;;5.57;2.83;;;17.50;1.00;;;;;;4974162;28;20252;-77
2023/09/28 02:53:37;;;;;;;8.13;3.00;;;17.50;1.00;;;;;;4975823;28;20180;-77
2023/09/28 02:56:03;;;;;;;5.97;2.70;;;17.50;1.00;;;;;;4974295;28;20188;-77
2023/09/28 02:58:29;;;;;;;3.77;2.37;;;17.40;1.00;;;;;;4975626;28;20197;-76
2023/09/28 03:00:56;;;;;;;3.53;2.20;;;17.40;1.00;;;;;;4975688;28;20178;-77
2023/09/28 03:03:23;;;;;;;7.73;2.40;;;17.40;1.00;;;;;;4975563;28;20253;-77
2023/09/28 03:05:55;;;;;;;4.73;2.37;;;17.30;1.00;;;;;;4975851;28;20182;-77
2023/09/28 03:08:21;;;;;;;9.50;2.93;;;17.30;1.00;;;;;;4975727;28;20623;-77
2023/09/28 03:10:46;;;;;;;4.97;2.50;;;17.20;1.00;;;;;;4975383;28;20224;-77
2023/09/28 03:13:13;;;;;;;4.33;2.70;;;17.20;1.00;;;;;;4975436;28;20689;-77
2023/09/28 03:15:43;;;;;;;6.70;2.57;;;17.20;1.00;;;;;;4974087;28;20202;-77
2023/09/28 03:18:10;;;;;;;2.80;2.40;;;17.10;32.30;;;;;;4974087;28;20631;-77
2023/09/28 03:20:35;;;;;;;5.47;2.50;;;17.10;89.20;;;;;;4974857;28;20182;-77
2023/09/28 03:23:01;;;;;;;5.33;2.50;;;17.00;99.90;;;;;;4974935;28;20297;-77
2023/09/28 03:25:27;;;;;;;6.37;3.00;;;17.00;99.90;;;;;;4975563;28;20201;-77
2023/09/28 03:27:54;;;;;;;5.53;2.60;;;17.00;99.90;;;;;;4975243;28;20646;-77
2023/09/28 03:30:22;;;;;;;5.47;2.43;;;16.90;99.90;;;;;;4974113;28;20268;-77
2023/09/28 03:32:49;;;;;;;4.17;2.80;;;16.90;99.90;;;;;;4975951;28;20199;-78
2023/09/28 03:35:16;;;;;;;5.37;3.00;;;16.90;99.90;;;;;;4975070;28;20189;-77
2023/09/28 03:37:42;;;;;;;5.57;2.63;;;17.00;99.90;;;;;;4974320;28;20185;-77
2023/09/28 03:40:10;;;;;;;3.10;2.33;;;16.80;99.90;;;;;;4975168;28;20652;-77
2023/09/28 03:42:40;;;;;;;3.70;2.83;;;16.80;99.90;;;;;;4977138;28;20191;-77
2023/09/28 03:45:08;;;;;;;5.50;2.83;;;16.90;99.90;;;;;;4977088;28;20596;-76
2023/09/28 03:47:35;;;;;;;5.43;2.67;;;16.80;99.90;;;;;;4976759;28;20190;-77
2023/09/28 03:50:01;;;;;;;4.77;2.90;;;16.90;99.90;;;;;;4977269;28;20196;-76
2023/09/28 03:52:26;;;;;;;3.30;3.00;;;16.90;99.90;;;;;;4976816;28;20230;-76
2023/09/28 03:54:52;;;;;;;4.23;2.73;;;16.90;99.90;;;;;;4976762;28;20234;-76
2023/09/28 03:57:18;;;;;;;6.50;3.00;;;16.80;99.90;;;;;;4974093;28;20174;-77
2023/09/28 03:59:43;;;;;;;3.63;2.87;;;16.80;99.90;;;;;;4973257;28;20551;-77
2023/09/28 04:02:09;;;;;;;4.33;2.27;;;16.80;99.90;;;;;;4974460;28;20201;-77
2023/09/28 04:04:35;;;;;;;3.73;3.10;;;16.80;99.90;;;;;;4974913;28;20694;-77
2023/09/28 04:07:01;;;;;;;4.47;2.73;;;16.80;99.90;;;;;;4974483;28;20197;-77
2023/09/28 04:09:26;;;;;;;5.23;2.60;;;16.80;99.90;;;;;;4974502;28;20591;-77
2023/09/28 04:11:52;;;;;;;4.27;3.03;;;16.80;99.90;;;;;;4974815;28;20247;-77
2023/09/28 04:14:17;;;;;;;7.93;3.07;;;16.80;99.90;;;;;;4974645;28;20184;-77
2023/09/28 04:16:43;;;;;;;4.70;2.77;;;16.50;99.90;;;;;;4973350;28;20174;-77
2023/09/28 04:19:08;;;;;;;5.87;2.83;;;16.70;99.90;;;;;;4973256;28;20268;-77
2023/09/28 04:21:34;;;;;;;8.07;3.17;;;16.70;99.90;;;;;;4974151;28;20237;-77
2023/09/28 04:24:00;;;;;;;4.63;3.10;;;16.60;99.90;;;;;;4974388;28;20856;-77
2023/09/28 04:26:25;;;;;;;4.47;3.13;;;16.60;99.90;;;;;;4974546;28;20193;-77
2023/09/28 04:28:51;;;;;;;7.20;3.20;;;16.60;99.90;;;;;;4974734;28;20170;-77
2023/09/28 04:31:18;;;;;;;5.53;3.30;;;16.70;99.90;;;;;;4972809;28;20209;-77
2023/09/28 04:33:44;;;;;;;5.43;3.50;;;16.50;99.90;;;;;;4973281;28;20246;-78
2023/09/28 04:36:09;;;;;;;6.60;2.80;;;16.50;99.90;;;;;;4973519;28;20178;-77
2023/09/28 04:38:36;;;;;;;4.07;3.10;;;16.50;99.90;;;;;;4972758;28;20665;-77
2023/09/28 04:41:05;;;;;;;3.87;2.80;;;16.40;99.90;;;;;;4974441;28;20177;-77
2023/09/28 04:43:31;;;;;;;5.87;2.70;;;16.30;99.90;;;;;;4975557;28;20193;-77
2023/09/28 04:45:56;;;;;;;5.77;3.43;;;16.30;99.90;;;;;;4976383;28;20178;-77
2023/09/28 04:48:22;;;;;;;5.80;3.20;;;16.20;99.90;;;;;;4979891;28;20201;-77
2023/09/28 04:50:47;;;;;;;3.77;3.10;;;16.20;99.90;;;;;;4984505;28;20654;-77
2023/09/28 04:53:13;;;;;;;4.27;3.10;;;16.20;99.90;;;;;;4978354;28;20194;-77
2023/09/28 04:55:38;;;;;;;8.23;4.00;;;16.20;99.90;;;;;;4981828;28;20209;-77
2023/09/28 04:58:05;;;;;;;5.00;3.30;;;16.20;99.90;;;;;;4982534;28;20268;-78
2023/09/28 05:00:30;;;;;;;4.60;3.07;;;16.10;99.90;;;;;;4976223;28;20285;-76
2023/09/28 05:02:56;;;;;;;7.90;3.30;;;16.10;99.90;;;;;;4977296;28;20204;-76
2023/09/28 05:05:22;;;;;;;6.00;4.00;;;16.10;99.90;;;;;;4977389;28;20208;-76
2023/09/28 05:07:48;;;;;;;4.83;3.97;;;16.10;99.90;;;;;;4976315;28;20218;-76
2023/09/28 05:10:13;;;;;;;3.77;3.43;;;16.00;99.90;;;;;;4976839;28;20201;-76
2023/09/28 05:12:39;;;;;;;3.90;3.00;;;16.00;99.90;;;;;;4976917;28;20695;-76
2023/09/28 05:15:06;;;;;;;9.00;3.60;;;15.90;99.90;;;;;;4976868;28;20546;-76
2023/09/28 05:17:31;;;;;;;5.13;3.50;;;15.90;99.90;;;;;;4975615;28;20185;-76
2023/09/28 05:19:57;;;;;;;5.87;3.27;;;15.90;99.90;;;;;;4976809;28;20665;-76
2023/09/28 05:22:23;;;;;;;7.63;3.10;;;15.80;99.90;;;;;;4976888;28;20252;-75
2023/09/28 05:24:48;;;;;;;7.00;3.40;;;15.80;99.90;;;;;;4977021;28;20527;-76
2023/09/28 05:27:14;;;;;;;5.60;2.83;;;15.70;99.90;;;;;;4976990;28;20198;-76
2023/09/28 05:29:39;;;;;;;5.50;2.93;;;15.70;99.90;;;;;;4975708;28;20563;-76
2023/09/28 05:32:06;;;;;;;6.10;3.23;;;15.70;99.90;;;;;;4976868;28;20546;-76
2023/09/28 05:34:32;;;;;;;4.03;3.30;;;15.60;99.90;;;;;;4975310;28;20185;-76
2023/09/28 05:36:57;;;;;;;4.83;3.30;;;15.50;99.90;;;;;;4976839;28;20178;-76
2023/09/28 05:39:23;;;;;;;4.60;3.20;;;15.50;99.90;;;;;;4976702;28;20193;-76
2023/09/28 05:41:49;;;;;;;5.47;3.73;;;15.50;99.90;;;;;;4976652;28;20217;-76
2023/09/28 05:44:14;;;;;;;4.83;3.90;;;15.50;99.90;;;;;;4976670;28;20652;-76
2023/09/28 05:46:40;;;;;;;6.40;3.60;;;15.50;99.90;;;;;;4975317;28;20543;-77
2023/09/28 05:49:06;;;;;;;4.90;3.53;;;15.50;99.90;;;;;;4976568;28;20673;-76
2023/09/28 05:51:31;;;;;;;5.63;3.80;;;15.50;99.90;;;;;;4976329;28;20209;-77
2023/09/28 05:53:57;;;;;;;4.30;3.83;;;15.50;99.90;;;;;;4976437;28;20205;-76
2023/09/28 05:56:22;;;;;;;4.20;3.80;;;15.50;99.90;;;;;;4976407;28;20619;-76
2023/09/28 05:58:48;;;;;;;5.80;4.00;;;15.50;99.90;;;;;;4975057;28;20658;-76
2023/09/28 06:01:17;;;;;;;6.77;3.90;;;15.50;99.90;;;;;;4975159;28;20174;-77
2023/09/28 06:03:42;;;;;;;9.73;3.80;;;15.50;99.90;;;;;;4976299;28;20200;-76
2023/09/28 06:06:16;;;;;;;6.20;4.03;;;15.40;99.90;;;;;;4976291;28;20175;-76
2023/09/28 06:08:42;;;;;;;10.37;4.13;;;15.40;99.90;;;;;;4975056;28;20178;-76
2023/09/28 06:11:15;;;;;;;8.07;4.10;;;15.40;99.90;;;;;;4976401;28;20202;-77
2023/09/28 06:13:42;;;;;;;6.43;4.40;;;15.40;99.90;;;;;;4976090;28;20170;-76
2023/09/28 06:16:10;;;;;;;8.43;4.00;;;15.40;99.90;;;;;;4975982;28;20171;-77
2023/09/28 06:18:36;;;;;;;11.67;3.73;;;15.40;99.90;;;;;;4976024;28;20288;-76
2023/09/28 06:21:02;;;;;;;3.63;3.23;;;15.40;99.90;;;;;;4975928;28;20218;-76
2023/09/28 06:23:28;;;;;;;7.93;4.07;;;15.40;99.90;;;;;;4975950;28;20650;-76
2023/09/28 06:25:53;;;;;;;4.40;3.33;;;15.50;99.90;;;;;;4974549;28;20186;-76
2023/09/28 06:28:21;;;;;;;6.93;3.33;;;15.50;99.90;;;;;;4975803;28;20179;-76
2023/09/28 06:30:47;;;;;;;5.30;3.53;;;15.50;99.90;;;;;;4975707;28;20191;-76
2023/09/28 06:33:13;;;;;;;5.03;3.77;;;15.50;99.90;;;;;;4974522;28;20554;-76
2023/09/28 06:35:38;;;;;;;5.53;4.10;;;15.50;99.90;;;;;;4975677;28;20174;-76
2023/09/28 06:38:05;;;;;;;5.33;3.63;;;15.50;99.90;;;;;;4974315;28;20283;-77
2023/09/28 06:40:30;;;;;;;7.57;4.20;;;15.50;99.90;;;;;;4974312;28;20221;-77
2023/09/28 06:42:56;;;;;;;6.33;3.93;;;15.70;99.90;;;;;;4975555;28;20222;-76
2023/09/28 06:45:21;;;;;;;5.90;3.67;;;15.60;99.90;;;;;;4976059;28;20178;-76
2023/09/28 06:47:47;;;;;;;5.40;3.93;;;15.60;99.90;;;;;;4975502;28;20175;-77
2023/09/28 06:50:13;;;;;;;4.30;3.90;;;15.60;99.90;;;;;;4975311;28;20542;-76
2023/09/28 06:52:39;;;;;;;6.37;4.23;;;15.60;99.90;;;;;;4975410;28;20190;-76
2023/09/28 06:55:05;;;;;;;9.10;4.93;;;15.60;99.90;;;;;;4975459;28;20177;-77
2023/09/28 06:57:30;;;;;;;6.87;4.80;;;15.70;99.90;;;;;;4975504;28;20185;-76
2023/09/28 06:59:56;;;;;;;7.10;4.83;;;15.70;99.90;;;;;;4975791;28;20171;-76
2023/09/28 07:02:22;;;;;;;5.20;4.27;;;15.70;99.90;;;;;;4973997;28;20202;-76
2023/09/28 07:04:48;;;;;;;7.87;4.30;;;15.80;99.90;;;;;;4974122;28;20179;-76
2023/09/28 07:07:17;;;;;;;4.93;4.20;;;15.80;99.90;;;;;;4977777;28;20183;-76
2023/09/28 07:09:44;;;;;;;7.83;4.07;;;15.80;99.90;;;;;;4975306;28;20186;-76
2023/09/28 07:12:12;;;;;;;5.70;3.90;;;15.80;99.90;;;;;;4974752;28;20228;-76
2023/09/28 07:14:37;;;;;;;8.40;4.43;;;15.80;99.90;;;;;;4975459;28;20174;-77
2023/09/28 07:17:04;;;;;;;6.40;4.30;;;15.90;99.90;;;;;;4974186;28;20767;-76
2023/09/28 07:19:30;;;;;;;6.77;4.10;;;16.00;99.90;;;;;;4973618;28;20181;-77
2023/09/28 07:21:56;;;;;;;7.30;4.83;;;16.00;99.90;;;;;;4974786;28;20207;-77
2023/09/28 07:24:21;;;;;;;10.33;4.93;;;16.00;99.90;;;;;;4974023;28;20254;-77
2023/09/28 07:26:47;;;;;;;8.30;5.20;;;16.10;99.90;;;;;;4974863;28;20261;-77
2023/09/28 07:29:12;;;;;;;7.57;4.80;;;16.10;99.90;;;;;;4973581;28;20174;-77
2023/09/28 07:31:38;;;;;;;8.50;5.23;;;16.20;99.90;;;;;;4974856;28;20288;-77
2023/09/28 07:34:04;;;;;;;8.53;5.00;;;16.20;99.90;;;;;;4974756;28;20520;-77
2023/09/28 07:36:29;;;;;;;8.70;5.30;;;16.30;99.90;;;;;;4973472;28;20174;-77
2023/09/28 07:38:55;;;;;;;6.30;4.87;;;16.40;99.90;;;;;;4974640;28;20190;-77
2023/09/28 07:41:21;;;;;;;6.77;5.03;;;16.40;99.90;;;;;;4974917;28;20202;-77
2023/09/28 07:43:47;;;;;;;10.40;4.80;;;16.50;99.90;;;;;;4973360;28;20177;-77
2023/09/28 07:46:13;;;;;;;5.93;4.80;;;16.50;99.90;;;;;;4974647;28;20181;-77
2023/09/28 07:48:40;;;;;;;6.57;4.60;;;16.60;99.90;;;;;;4974912;28;20198;-77
2023/09/28 07:51:05;;;;;;;9.87;5.07;;;16.90;99.90;;;;;;4974590;28;20186;-79
2023/09/28 07:53:31;;;;;;;11.17;4.70;;;16.80;99.90;;;;;;4974570;28;20173;-77
2023/09/28 07:55:57;;;;;;;6.80;5.00;;;16.80;99.90;;;;;;4973413;28;20265;-77
2023/09/28 07:58:22;;;;;;;9.83;4.87;;;16.90;99.90;;;;;;4973695;28;20181;-77
2023/09/28 08:00:48;;;;;;;7.03;4.53;;;17.20;99.90;;;;;;4973161;28;20550;-77
2023/09/28 08:03:15;;;;;;;12.57;4.90;;;17.10;99.90;;;;;;4973074;28;20217;-78
2023/09/28 08:05:40;;;;;;;10.00;4.93;;;17.10;99.90;;;;;;4974523;28;20209;-77
2023/09/28 08:08:06;;;;;;;13.77;4.90;;;17.30;99.90;;;;;;4974932;28;20171;-77
2023/09/28 08:10:33;;;;;;;6.57;4.07;;;17.40;99.90;;;;;;4973130;28;20194;-77
2023/09/28 08:13:00;;;;;;;7.33;4.53;;;17.50;99.90;;;;;;4973282;28;20244;-78
2023/09/28 08:15:25;;;;;;;9.67;4.37;;;17.60;99.90;;;;;;4954993;29;20171;-77
2023/09/28 08:17:51;;;;;;;6.83;4.33;;;17.60;99.90;;;;;;4954747;29;20245;-77
2023/09/28 08:20:17;;;;;;;8.47;3.60;;;17.70;99.90;;;;;;4953776;29;20655;-77
2023/09/28 08:22:43;;;;;;;8.00;4.10;;;17.80;99.90;;;;;;4953460;28;20206;-77
2023/09/28 08:25:09;;;;;;;9.50;3.87;;;17.80;99.90;;;;;;4954698;28;20175;-77
2023/09/28 08:27:35;;;;;;;5.90;3.67;;;17.90;99.90;;;;;;4973443;28;20591;-77
2023/09/28 08:30:01;;;;;;;8.43;3.70;;;18.10;99.90;;;;;;4973713;28;20185;-77
2023/09/28 08:32:26;;;;;;;7.10;3.90;;;18.20;99.90;;;;;;4972237;28;20217;-77
2023/09/28 08:34:52;;;;;;;14.30;4.27;;;18.30;99.90;;;;;;4972623;28;20552;-77
2023/09/28 08:37:18;;;;;;;8.77;3.67;;;18.40;99.90;;;;;;4974038;28;20261;-77
2023/09/28 08:39:44;;;;;;;10.00;3.57;;;18.40;99.90;;;;;;4972637;28;20686;-77
2023/09/28 08:42:15;;;;;;;10.40;3.67;;;18.40;99.90;;;;;;4972905;28;20677;-77
2023/09/28 08:44:41;;;;;;;8.67;4.20;;;18.40;99.90;;;;;;4972585;28;20197;-77
2023/09/28 08:47:17;;;;;;;9.67;3.90;;;18.50;99.90;;;;;;4973939;28;20170;-77
2023/09/28 08:49:46;;;;;;;14.27;3.77;;;18.50;99.90;;;;;;4972919;28;20642;-77
2023/09/28 08:52:14;;;;;;;8.33;3.60;;;18.50;99.90;;;;;;4974422;28;20581;-77
2023/09/28 08:54:41;;;;;;;9.70;4.50;;;18.50;99.90;;;;;;4973150;28;20182;-77
2023/09/28 08:57:08;;;;;;;9.27;4.20;;;18.50;99.90;;;;;;4972433;28;20174;-77
2023/09/28 08:59:36;;;;;;;11.27;3.93;;;18.50;99.90;;;;;;4972874;28;20186;-77
2023/09/28 09:02:03;;;;;;;10.20;4.00;;;18.60;99.90;;;;;;4971707;28;20296;-77
2023/09/28 09:04:34;;;;;;;11.57;4.27;;;18.60;99.90;;;;;;4973868;28;20174;-77
2023/09/28 09:07:02;;;;;;;11.20;4.00;;;18.70;99.90;;;;;;4971639;28;22273;-78
2023/09/28 09:09:31;;;;;;;8.90;4.13;;;18.80;99.90;;;;;;4973197;28;20213;-77
2023/09/28 09:11:57;;;;;;;6.93;3.40;;;18.80;99.90;;;;;;4970909;28;20293;-77
2023/09/28 09:14:28;;;;;;;10.97;4.10;;;18.90;99.90;;;;;;4974009;28;20178;-77
2023/09/28 09:16:53;;;;;;;10.83;4.30;;;18.90;99.90;;;;;;4973266;28;20250;-77
2023/09/28 09:19:19;;;;;;;7.23;4.23;;;19.00;99.90;;;;;;4972573;28;20625;-77
2023/09/28 09:21:44;;;;;;;7.30;4.07;;;18.90;99.90;;;;;;4973553;28;20213;-77
2023/09/28 09:24:14;;;;;;;9.33;3.40;;;19.10;99.90;;;;;;4967218;28;20190;-78
2023/09/28 09:26:42;;;;;;;9.70;3.70;;;19.20;99.90;;;;;;4954576;29;20258;-77
2023/09/28 09:29:09;;;;;;;6.80;3.60;;;19.20;99.90;;;;;;4952828;29;20183;-79
2023/09/28 09:31:38;;;;;;;11.63;3.73;;;19.30;99.90;;;;;;4954046;28;20229;-77
2023/09/28 09:34:04;;;;;;;10.40;3.90;;;19.30;99.90;;;;;;4954065;28;20262;-77
2023/09/28 09:36:30;;;;;;;7.90;3.90;;;19.30;99.90;;;;;;4957043;29;20183;-77
2023/09/28 09:38:58;;;;;;;10.17;3.90;;;19.50;99.90;;;;;;4962405;28;20213;-77
2023/09/28 09:41:24;;;;;;;5.93;3.67;;;19.40;99.90;;;;;;4978798;28;20210;-77
2023/09/28 09:43:51;;;;;;;7.53;4.13;;;19.40;99.90;;;;;;4981119;28;20193;-77
2023/09/28 09:46:17;;;;;;;6.90;3.50;;;19.40;99.90;;;;;;4975994;28;20178;-78
2023/09/28 09:48:44;;;;;;;14.03;3.50;;;19.50;99.90;;;;;;4974470;28;20194;-77
2023/09/28 09:51:14;;;;;;;6.50;3.10;;;19.50;84.70;;;;;;4975882;28;20207;-77
2023/09/28 09:53:44;;;;;;;11.70;3.73;;;19.60;1.00;;;;;;4977218;28;20170;-77
2023/09/28 09:56:11;;;;;;;11.93;3.60;;;19.70;24.40;;;;;;4977266;28;20181;-77
2023/09/28 09:58:40;;;;;;;6.87;3.30;;;19.80;26.90;;;;;;4975668;28;20193;-77
2023/09/28 10:01:13;;;;;;;8.73;3.53;;;19.70;1.00;;;;;;4977261;28;20264;-77
2023/09/28 10:03:42;;;;;;;8.33;3.40;;;19.90;1.00;;;;;;4975923;28;20274;-77
2023/09/28 10:06:09;;;;;;;10.33;3.37;;;19.90;1.00;;;;;;4975850;28;20665;-77
2023/09/28 10:08:35;;;;;;;10.20;3.53;;;19.90;1.00;;;;;;4977145;28;20189;-77
2023/09/28 10:11:04;;;;;;;10.27;3.63;;;20.00;99.90;;;;;;4975640;28;20198;-77
2023/09/28 10:13:31;;;;;;;11.23;3.07;;;20.00;1.00;;;;;;4976348;28;20564;-78
2023/09/28 10:16:00;;;;;;;10.63;3.90;;;20.10;1.00;;;;;;4975512;28;20174;-77
2023/09/28 10:18:26;;;;;;;10.00;3.47;;;20.20;1.00;;;;;;4975899;28;20178;-77
2023/09/28 10:20:52;;;;;;;12.47;3.80;;;20.40;99.90;;;;;;4975854;28;20737;-77
2023/09/28 10:23:23;;;;;;;7.00;2.87;;;20.40;99.90;;;;;;4976517;28;20230;-77
2023/09/28 10:26:15;;;;;;;10.90;3.57;;;20.50;99.90;;;;;;4975519;28;20170;-77
2023/09/28 10:29:09;;;;;;;8.10;3.20;;;20.50;99.90;;;;;;4967041;28;20191;-77
2023/09/28 10:31:41;;;;;;;11.50;3.10;;;20.60;99.90;;;;;;4974142;28;20717;-77
2023/09/28 10:34:08;;;;;;;6.17;2.83;;;20.60;99.90;;;;;;4975717;28;20229;-80
2023/09/28 10:36:37;;;;;;;9.80;3.20;;;20.70;99.90;;;;;;4978097;28;20669;-79
2023/09/28 10:39:11;;;;;;;10.53;3.40;;;20.60;99.90;;;;;;4977586;28;20190;-79
2023/09/28 10:41:37;;;;;;;11.47;3.37;;;20.50;52.30;;;;;;4976479;28;20747;-79
2023/09/28 10:44:12;;;;;;;9.30;2.90;;;20.50;99.90;;;;;;4977226;28;20175;-80
2023/09/28 10:46:41;;;;;;;10.00;2.90;;;20.50;99.90;;;;;;4977427;28;20167;-79
2023/09/28 10:49:07;;;;;;;11.70;3.20;;;20.60;99.90;;;;;;4977935;28;20174;-79
2023/09/28 10:51:32;;;;;;;10.13;2.87;;;20.40;99.90;;;;;;4976511;28;20769;-79
2023/09/28 10:54:03;;;;;;;13.00;3.23;;;20.30;99.90;;;;;;4977149;28;20167;-79
2023/09/28 10:56:29;;;;;;;9.97;3.20;;;20.40;99.90;;;;;;4977925;28;20209;-79
2023/09/28 10:58:56;;;;;;;6.17;3.13;;;20.30;1.00;;;;;;4977893;28;20175;-79
2023/09/28 11:01:22;;;;;;;6.60;2.70;;;20.30;1.00;;;;;;4976006;28;20190;-80
2023/09/28 11:03:50;;;;;;;6.87;3.17;;;20.30;1.00;;;;;;4975936;28;20186;-79
2023/09/28 11:06:16;;;;;;;13.70;3.80;;;20.30;99.90;;;;;;4977218;28;20178;-79
2023/09/28 11:08:42;;;;;;;8.90;3.13;;;20.30;1.00;;;;;;4976693;28;20190;-79
2023/09/28 11:11:08;;;;;;;6.60;3.03;;;20.40;1.00;;;;;;4977794;28;20202;-80
2023/09/28 11:13:34;;;;;;;11.87;3.43;;;20.40;1.00;;;;;;4977491;28;20174;-80
2023/09/28 11:16:00;;;;;;;9.40;3.10;;;20.40;6.20;;;;;;4977868;28;20232;-79
2023/09/28 11:18:26;;;;;;;11.27;3.80;;;20.40;14.40;;;;;;4976734;28;20182;-79
2023/09/28 11:20:56;;;;;;;8.73;3.60;;;20.40;94.30;;;;;;4976087;28;20196;-79
2023/09/28 11:23:22;;;;;;;7.77;3.70;;;20.40;99.90;;;;;;4978427;28;20216;-80
2023/09/28 11:25:48;;;;;;;7.93;3.03;;;20.50;99.90;;;;;;4978599;28;20562;-79
2023/09/28 11:28:14;;;;;;;8.53;3.13;;;20.50;99.90;;;;;;4978144;28;20253;-80
2023/09/28 11:30:40;;;;;;;7.40;3.43;;;20.60;99.90;;;;;;4979426;28;20654;-80
2023/09/28 11:33:07;;;;;;;11.03;3.10;;;20.60;99.90;;;;;;4976548;28;20214;-79
2023/09/28 11:35:39;;;;;;;11.53;2.87;;;20.60;99.90;;;;;;4977244;28;20174;-80
2023/09/28 11:38:10;;;;;;;8.60;2.80;;;20.60;99.90;;;;;;4978045;28;20190;-80
2023/09/28 11:40:39;;;;;;;12.43;3.10;;;20.60;1.00;;;;;;4975665;28;20504;-77
2023/09/28 11:43:08;;;;;;;10.23;3.27;;;20.60;1.00;;;;;;4975913;28;20237;-79
2023/09/28 11:45:34;;;;;;;9.77;2.87;;;20.70;1.00;;;;;;4975850;28;20189;-80
2023/09/28 11:48:05;;;;;;;8.97;3.17;;;20.70;48.50;;;;;;4976289;28;20544;-78
2023/09/28 11:50:33;;;;;;;11.60;3.30;;;20.70;99.90;;;;;;4973478;28;20182;-78
2023/09/28 11:52:59;;;;;;;12.77;3.20;;;20.80;99.90;;;;;;4973588;28;20233;-78
2023/09/28 11:55:25;;;;;;;8.97;2.80;;;20.70;99.90;;;;;;4973875;28;20208;-78
2023/09/28 11:57:54;;;;;;;11.40;3.33;;;20.70;99.90;;;;;;4973114;28;20673;-78
2023/09/28 12:00:20;;;;;;;10.63;2.73;;;20.70;99.90;;;;;;4975113;28;20169;-77
2023/09/28 12:02:46;;;;;;;8.00;2.90;;;20.80;99.90;;;;;;4973146;28;20198;-78
2023/09/28 12:05:13;;;;;;;8.90;2.87;;;20.80;99.90;;;;;;4974773;28;20170;-78
2023/09/28 12:07:40;;;;;;;11.60;3.60;;;20.80;99.90;;;;;;4974621;28;20201;-78
2023/09/28 12:10:14;;;;;;;13.03;3.30;;;20.80;99.90;;;;;;4973100;28;20264;-77
2023/09/28 12:12:39;;;;;;;10.53;3.10;;;20.80;99.90;;;;;;4973152;28;20210;-78
2023/09/28 12:15:10;;;;;;;6.87;2.97;;;20.80;99.90;;;;;;4974356;28;20721;-79
2023/09/28 12:17:36;;;;;;;13.37;3.70;;;20.80;99.90;;;;;;4973296;28;20544;-77
2023/09/28 12:20:02;;;;;;;9.87;3.13;;;20.90;99.90;;;;;;4974389;28;20241;-78
2023/09/28 12:22:28;;;;;;;9.20;3.50;;;20.80;99.90;;;;;;4972995;28;20206;-77
2023/09/28 12:24:55;;;;;;;12.13;3.60;;;20.80;99.90;;;;;;4974290;28;20594;-79
2023/09/28 12:27:21;;;;;;;10.63;2.83;;;20.90;99.90;;;;;;4974687;28;20641;-79
2023/09/28 12:29:47;;;;;;;14.00;4.00;;;21.00;99.90;;;;;;4973648;28;20197;-78
2023/09/28 12:32:12;;;;;;;10.37;3.47;;;21.00;1.00;;;;;;4972646;28;20592;-78
2023/09/28 12:34:38;;;;;;;10.33;3.83;;;21.00;1.00;;;;;;4974290;28;20178;-78
2023/09/28 12:37:03;;;;;;;9.37;3.23;;;21.10;1.00;;;;;;4973045;28;20584;-77
2023/09/28 12:39:31;;;;;;;12.50;3.30;;;21.10;1.00;;;;;;4973730;28;20192;-78
2023/09/28 12:41:58;;;;;;;16.00;3.37;;;21.10;1.00;;;;;;4973087;28;20206;-78
2023/09/28 12:44:25;;;;;;;16.33;3.67;;;21.10;1.00;;;;;;4973666;28;20182;-78
2023/09/28 12:46:52;;;;;;;13.90;3.70;;;21.10;1.00;;;;;;4975518;28;20174;-77